sensor_id;sensor_type;location;lat;lon;timestamp;temperature;humidity
16404;DHT22;8311;50.158;8.642;2024-01-27T00:01:03;21.50;58.80
16404;DHT22;8311;50.158;8.642;2024-01-27T00:03:57;21.50;58.80
16404;DHT22;8311;50.158;8.642;2024-01-27T00:06:50;21.40;58.60
16404;DHT22;8311;50.158;8.642;2024-01-27T00:09:43;21.40;58.70
16404;DHT22;8311;50.158;8.642;2024-01-27T00:12:36;21.40;58.70
16404;DHT22;8311;50.158;8.642;2024-01-27T00:15:29;21.40;58.80
16404;DHT22;8311;50.158;8.642;2024-01-27T00:18:24;21.40;59.00
16404;DHT22;8311;50.158;8.642;2024-01-27T00:21:17;21.40;59.00
16404;DHT22;8311;50.158;8.642;2024-01-27T00:24:11;21.40;59.00
16404;DHT22;8311;50.158;8.642;2024-01-27T00:27:05;21.40;59.00
16404;DHT22;8311;50.158;8.642;2024-01-27T00:29:59;21.40;59.00
16404;DHT22;8311;50.158;8.642;2024-01-27T00:32:53;21.40;59.00
16404;DHT22;8311;50.158;8.642;2024-01-27T00:35:48;21.40;59.00
16404;DHT22;8311;50.158;8.642;2024-01-27T00:38:41;21.40;59.00
16404;DHT22;8311;50.158;8.642;2024-01-27T00:41:34;21.40;58.90
16404;DHT22;8311;50.158;8.642;2024-01-27T00:44:28;21.40;58.90
16404;DHT22;8311;50.158;8.642;2024-01-27T00:47:21;21.40;59.00
16404;DHT22;8311;50.158;8.642;2024-01-27T00:50:15;21.40;58.80
16404;DHT22;8311;50.158;8.642;2024-01-27T00:53:10;21.40;59.00
16404;DHT22;8311;50.158;8.642;2024-01-27T00:56:04;21.40;58.90
16404;DHT22;8311;50.158;8.642;2024-01-27T00:58:57;21.50;58.90
16404;DHT22;8311;50.158;8.642;2024-01-27T01:01:51;21.50;58.90
16404;DHT22;8311;50.158;8.642;2024-01-27T01:04:44;21.50;58.90
16404;DHT22;8311;50.158;8.642;2024-01-27T01:07:37;21.50;58.80
16404;DHT22;8311;50.158;8.642;2024-01-27T01:10:31;21.50;58.80
16404;DHT22;8311;50.158;8.642;2024-01-27T01:13:25;21.50;58.80
16404;DHT22;8311;50.158;8.642;2024-01-27T01:16:18;21.50;58.80
16404;DHT22;8311;50.158;8.642;2024-01-27T01:19:12;21.50;58.80
16404;DHT22;8311;50.158;8.642;2024-01-27T01:25:50;21.50;59.00
16404;DHT22;8311;50.158;8.642;2024-01-27T01:28:44;21.50;59.10
16404;DHT22;8311;50.158;8.642;2024-01-27T01:31:37;21.40;59.10
16404;DHT22;8311;50.158;8.642;2024-01-27T01:34:30;21.40;59.00
16404;DHT22;8311;50.158;8.642;2024-01-27T01:37:24;21.50;59.00
16404;DHT22;8311;50.158;8.642;2024-01-27T01:40:16;21.50;59.00
16404;DHT22;8311;50.158;8.642;2024-01-27T01:43:12;21.40;59.00
16404;DHT22;8311;50.158;8.642;2024-01-27T01:46:05;21.50;59.00
16404;DHT22;8311;50.158;8.642;2024-01-27T01:52:43;21.40;59.10
16404;DHT22;8311;50.158;8.642;2024-01-27T01:55:37;21.40;59.00
16404;DHT22;8311;50.158;8.642;2024-01-27T01:58:31;21.40;59.00
16404;DHT22;8311;50.158;8.642;2024-01-27T02:01:26;21.40;59.10
16404;DHT22;8311;50.158;8.642;2024-01-27T02:08:04;21.40;59.10
16404;DHT22;8311;50.158;8.642;2024-01-27T02:10:57;21.40;59.00
16404;DHT22;8311;50.158;8.642;2024-01-27T02:13:54;21.40;59.00
16404;DHT22;8311;50.158;8.642;2024-01-27T02:16:47;21.40;59.00
16404;DHT22;8311;50.158;8.642;2024-01-27T02:19:41;21.40;59.10
16404;DHT22;8311;50.158;8.642;2024-01-27T02:22:35;21.40;59.00
16404;DHT22;8311;50.158;8.642;2024-01-27T02:25:30;21.40;59.00
16404;DHT22;8311;50.158;8.642;2024-01-27T02:28:24;21.40;59.00
16404;DHT22;8311;50.158;8.642;2024-01-27T02:31:17;21.40;59.00
16404;DHT22;8311;50.158;8.642;2024-01-27T02:34:11;21.40;59.00
16404;DHT22;8311;50.158;8.642;2024-01-27T02:40:50;21.40;59.00
16404;DHT22;8311;50.158;8.642;2024-01-27T02:43:43;21.40;59.00
16404;DHT22;8311;50.158;8.642;2024-01-27T02:46:37;21.40;59.00
16404;DHT22;8311;50.158;8.642;2024-01-27T02:49:31;21.40;59.00
16404;DHT22;8311;50.158;8.642;2024-01-27T02:52:24;21.40;59.10
16404;DHT22;8311;50.158;8.642;2024-01-27T02:55:17;21.40;59.20
16404;DHT22;8311;50.158;8.642;2024-01-27T02:58:11;21.40;59.20
16404;DHT22;8311;50.158;8.642;2024-01-27T03:01:04;21.40;59.20
16404;DHT22;8311;50.158;8.642;2024-01-27T03:03:57;21.40;59.20
16404;DHT22;8311;50.158;8.642;2024-01-27T03:06:51;21.50;59.30
16404;DHT22;8311;50.158;8.642;2024-01-27T03:09:44;21.40;59.30
16404;DHT22;8311;50.158;8.642;2024-01-27T03:12:37;21.40;59.10
16404;DHT22;8311;50.158;8.642;2024-01-27T03:19:15;21.40;59.20
16404;DHT22;8311;50.158;8.642;2024-01-27T03:22:09;21.40;59.20
16404;DHT22;8311;50.158;8.642;2024-01-27T03:25:04;21.50;59.30
16404;DHT22;8311;50.158;8.642;2024-01-27T03:27:56;21.50;59.30
16404;DHT22;8311;50.158;8.642;2024-01-27T03:30:50;21.50;59.50
16404;DHT22;8311;50.158;8.642;2024-01-27T03:33:43;21.50;59.40
16404;DHT22;8311;50.158;8.642;2024-01-27T03:40:22;21.50;59.30
16404;DHT22;8311;50.158;8.642;2024-01-27T03:43:16;21.50;59.30
16404;DHT22;8311;50.158;8.642;2024-01-27T03:46:09;21.50;59.40
16404;DHT22;8311;50.158;8.642;2024-01-27T03:49:03;21.40;59.40
16404;DHT22;8311;50.158;8.642;2024-01-27T03:51:57;21.40;59.50
16404;DHT22;8311;50.158;8.642;2024-01-27T03:54:50;21.40;59.50
16404;DHT22;8311;50.158;8.642;2024-01-27T03:57:44;21.40;59.50
16404;DHT22;8311;50.158;8.642;2024-01-27T04:00:37;21.40;59.50
16404;DHT22;8311;50.158;8.642;2024-01-27T04:07:16;21.40;59.50
16404;DHT22;8311;50.158;8.642;2024-01-27T04:10:10;21.40;59.50
16404;DHT22;8311;50.158;8.642;2024-01-27T04:13:05;21.40;59.60
16404;DHT22;8311;50.158;8.642;2024-01-27T04:15:58;21.40;59.60
16404;DHT22;8311;50.158;8.642;2024-01-27T04:18:53;21.40;59.70
16404;DHT22;8311;50.158;8.642;2024-01-27T04:21:46;21.40;59.70
16404;DHT22;8311;50.158;8.642;2024-01-27T04:24:39;21.40;59.60
16404;DHT22;8311;50.158;8.642;2024-01-27T04:27:32;21.40;59.70
16404;DHT22;8311;50.158;8.642;2024-01-27T04:30:30;21.40;59.70
16404;DHT22;8311;50.158;8.642;2024-01-27T04:33:24;21.40;59.70
16404;DHT22;8311;50.158;8.642;2024-01-27T04:36:25;21.40;59.70
16404;DHT22;8311;50.158;8.642;2024-01-27T04:39:19;21.40;59.70
16404;DHT22;8311;50.158;8.642;2024-01-27T04:42:12;21.40;59.70
16404;DHT22;8311;50.158;8.642;2024-01-27T04:45:05;21.40;59.60
16404;DHT22;8311;50.158;8.642;2024-01-27T04:48:00;21.40;59.60
16404;DHT22;8311;50.158;8.642;2024-01-27T04:50:54;21.40;59.60
16404;DHT22;8311;50.158;8.642;2024-01-27T04:53:49;21.40;59.60
16404;DHT22;8311;50.158;8.642;2024-01-27T04:56:42;21.40;59.50
16404;DHT22;8311;50.158;8.642;2024-01-27T04:59:35;21.40;59.60
16404;DHT22;8311;50.158;8.642;2024-01-27T05:02:28;21.40;59.60
16404;DHT22;8311;50.158;8.642;2024-01-27T05:05:23;21.40;59.60
16404;DHT22;8311;50.158;8.642;2024-01-27T05:08:16;21.40;59.60
16404;DHT22;8311;50.158;8.642;2024-01-27T05:11:09;21.40;59.50
16404;DHT22;8311;50.158;8.642;2024-01-27T05:14:03;21.40;59.50
16404;DHT22;8311;50.158;8.642;2024-01-27T05:16:56;21.40;59.60
16404;DHT22;8311;50.158;8.642;2024-01-27T05:19:49;21.40;59.60
16404;DHT22;8311;50.158;8.642;2024-01-27T05:22:44;21.40;59.70
16404;DHT22;8311;50.158;8.642;2024-01-27T05:25:37;21.40;59.70
16404;DHT22;8311;50.158;8.642;2024-01-27T05:28:31;21.40;59.70
16404;DHT22;8311;50.158;8.642;2024-01-27T05:31:26;21.40;59.60
16404;DHT22;8311;50.158;8.642;2024-01-27T05:34:19;21.40;59.60
16404;DHT22;8311;50.158;8.642;2024-01-27T05:40:58;21.40;59.70
16404;DHT22;8311;50.158;8.642;2024-01-27T05:43:51;21.40;59.70
16404;DHT22;8311;50.158;8.642;2024-01-27T05:46:44;21.40;59.70
16404;DHT22;8311;50.158;8.642;2024-01-27T05:49:38;21.50;59.80
16404;DHT22;8311;50.158;8.642;2024-01-27T05:52:32;21.40;59.70
16404;DHT22;8311;50.158;8.642;2024-01-27T05:55:26;21.50;59.80
16404;DHT22;8311;50.158;8.642;2024-01-27T05:58:20;21.40;60.00
16404;DHT22;8311;50.158;8.642;2024-01-27T06:01:14;21.50;59.60
16404;DHT22;8311;50.158;8.642;2024-01-27T06:04:07;21.50;59.50
16404;DHT22;8311;50.158;8.642;2024-01-27T06:07:00;21.60;59.60
16404;DHT22;8311;50.158;8.642;2024-01-27T06:09:53;21.60;59.70
16404;DHT22;8311;50.158;8.642;2024-01-27T06:12:46;21.70;59.60
16404;DHT22;8311;50.158;8.642;2024-01-27T06:15:40;21.70;59.70
16404;DHT22;8311;50.158;8.642;2024-01-27T06:18:34;21.80;59.80
16404;DHT22;8311;50.158;8.642;2024-01-27T06:21:28;21.90;59.80
16404;DHT22;8311;50.158;8.642;2024-01-27T06:24:21;21.90;59.90
16404;DHT22;8311;50.158;8.642;2024-01-27T06:27:14;21.90;59.80
16404;DHT22;8311;50.158;8.642;2024-01-27T06:30:09;22.00;59.90
16404;DHT22;8311;50.158;8.642;2024-01-27T06:33:05;22.00;59.80
16404;DHT22;8311;50.158;8.642;2024-01-27T06:39:41;22.10;59.90
16404;DHT22;8311;50.158;8.642;2024-01-27T06:42:34;22.10;59.80
16404;DHT22;8311;50.158;8.642;2024-01-27T06:45:27;22.10;59.60
16404;DHT22;8311;50.158;8.642;2024-01-27T06:48:21;22.00;54.50
16404;DHT22;8311;50.158;8.642;2024-01-27T06:51:17;21.90;52.10
16404;DHT22;8311;50.158;8.642;2024-01-27T06:54:10;21.80;52.40
16404;DHT22;8311;50.158;8.642;2024-01-27T06:57:03;21.80;53.00
16404;DHT22;8311;50.158;8.642;2024-01-27T06:59:57;21.80;53.40
16404;DHT22;8311;50.158;8.642;2024-01-27T07:02:50;21.80;53.80
16404;DHT22;8311;50.158;8.642;2024-01-27T07:05:44;21.80;54.10
16404;DHT22;8311;50.158;8.642;2024-01-27T07:08:38;21.70;54.40
16404;DHT22;8311;50.158;8.642;2024-01-27T07:11:31;21.70;54.60
16404;DHT22;8311;50.158;8.642;2024-01-27T07:14:24;21.70;54.80
16404;DHT22;8311;50.158;8.642;2024-01-27T07:17:17;21.60;54.30
16404;DHT22;8311;50.158;8.642;2024-01-27T07:20:10;21.50;51.50
16404;DHT22;8311;50.158;8.642;2024-01-27T07:23:05;21.40;53.10
16404;DHT22;8311;50.158;8.642;2024-01-27T07:29:45;21.20;51.80
16404;DHT22;8311;50.158;8.642;2024-01-27T07:32:38;21.20;46.20
16404;DHT22;8311;50.158;8.642;2024-01-27T07:35:32;21.10;45.60
16404;DHT22;8311;50.158;8.642;2024-01-27T07:38:26;21.10;44.90
16404;DHT22;8311;50.158;8.642;2024-01-27T07:41:20;21.00;45.20
16404;DHT22;8311;50.158;8.642;2024-01-27T07:44:13;21.00;45.90
16404;DHT22;8311;50.158;8.642;2024-01-27T07:47:07;21.00;46.50
16404;DHT22;8311;50.158;8.642;2024-01-27T07:50:01;21.00;47.40
16404;DHT22;8311;50.158;8.642;2024-01-27T07:52:54;21.00;47.40
16404;DHT22;8311;50.158;8.642;2024-01-27T07:55:48;21.00;47.90
16404;DHT22;8311;50.158;8.642;2024-01-27T07:58:43;20.90;48.30
16404;DHT22;8311;50.158;8.642;2024-01-27T08:01:36;20.90;48.60
16404;DHT22;8311;50.158;8.642;2024-01-27T08:04:29;20.90;48.70
16404;DHT22;8311;50.158;8.642;2024-01-27T08:07:23;20.90;49.20
16404;DHT22;8311;50.158;8.642;2024-01-27T08:10:16;20.90;49.20
16404;DHT22;8311;50.158;8.642;2024-01-27T08:13:10;20.80;49.00
16404;DHT22;8311;50.158;8.642;2024-01-27T08:16:04;20.80;49.30
16404;DHT22;8311;50.158;8.642;2024-01-27T08:18:58;20.80;49.30
16404;DHT22;8311;50.158;8.642;2024-01-27T08:25:34;20.80;49.20
16404;DHT22;8311;50.158;8.642;2024-01-27T08:28:30;20.80;49.60
16404;DHT22;8311;50.158;8.642;2024-01-27T08:31:23;20.80;49.90
16404;DHT22;8311;50.158;8.642;2024-01-27T08:34:16;20.80;50.70
16404;DHT22;8311;50.158;8.642;2024-01-27T08:37:15;20.80;51.30
16404;DHT22;8311;50.158;8.642;2024-01-27T08:40:09;20.80;50.00
16404;DHT22;8311;50.158;8.642;2024-01-27T08:43:04;20.80;49.60
16404;DHT22;8311;50.158;8.642;2024-01-27T08:45:59;20.90;49.20
16404;DHT22;8311;50.158;8.642;2024-01-27T08:52:36;20.90;48.70
16404;DHT22;8311;50.158;8.642;2024-01-27T08:55:30;21.00;48.50
16404;DHT22;8311;50.158;8.642;2024-01-27T08:58:23;21.00;48.50
16404;DHT22;8311;50.158;8.642;2024-01-27T09:01:17;21.00;48.50
16404;DHT22;8311;50.158;8.642;2024-01-27T09:04:11;21.00;48.50
16404;DHT22;8311;50.158;8.642;2024-01-27T09:07:04;21.10;48.50
16404;DHT22;8311;50.158;8.642;2024-01-27T09:09:57;21.10;48.40
16404;DHT22;8311;50.158;8.642;2024-01-27T09:12:50;21.20;48.20
16404;DHT22;8311;50.158;8.642;2024-01-27T09:15:43;21.20;48.20
16404;DHT22;8311;50.158;8.642;2024-01-27T09:18:38;21.20;48.30
16404;DHT22;8311;50.158;8.642;2024-01-27T09:21:32;21.30;48.20
16404;DHT22;8311;50.158;8.642;2024-01-27T09:24:25;21.30;48.30
16404;DHT22;8311;50.158;8.642;2024-01-27T09:27:18;21.30;48.20
16404;DHT22;8311;50.158;8.642;2024-01-27T09:30:12;21.40;48.20
16404;DHT22;8311;50.158;8.642;2024-01-27T09:33:05;21.40;48.30
16404;DHT22;8311;50.158;8.642;2024-01-27T09:36:00;21.40;48.20
16404;DHT22;8311;50.158;8.642;2024-01-27T09:38:53;21.40;48.20
16404;DHT22;8311;50.158;8.642;2024-01-27T09:41:48;21.50;48.10
16404;DHT22;8311;50.158;8.642;2024-01-27T09:44:43;21.50;48.20
16404;DHT22;8311;50.158;8.642;2024-01-27T09:47:38;21.50;48.00
16404;DHT22;8311;50.158;8.642;2024-01-27T09:50:33;21.50;48.10
16404;DHT22;8311;50.158;8.642;2024-01-27T09:53:27;21.50;47.80
16404;DHT22;8311;50.158;8.642;2024-01-27T09:56:21;21.60;47.90
16404;DHT22;8311;50.158;8.642;2024-01-27T09:59:16;21.50;47.70
16404;DHT22;8311;50.158;8.642;2024-01-27T10:02:11;21.60;47.80
16404;DHT22;8311;50.158;8.642;2024-01-27T10:05:06;21.60;47.80
16404;DHT22;8311;50.158;8.642;2024-01-27T10:08:00;21.60;47.70
16404;DHT22;8311;50.158;8.642;2024-01-27T10:10:55;21.60;47.80
16404;DHT22;8311;50.158;8.642;2024-01-27T10:13:54;21.70;47.70
16404;DHT22;8311;50.158;8.642;2024-01-27T10:16:51;21.70;47.50
16404;DHT22;8311;50.158;8.642;2024-01-27T10:19:44;21.70;47.40
16404;DHT22;8311;50.158;8.642;2024-01-27T10:22:37;21.80;47.70
16404;DHT22;8311;50.158;8.642;2024-01-27T10:29:16;21.80;47.50
16404;DHT22;8311;50.158;8.642;2024-01-27T10:32:10;21.80;47.30
16404;DHT22;8311;50.158;8.642;2024-01-27T10:35:05;21.80;47.30
16404;DHT22;8311;50.158;8.642;2024-01-27T10:38:00;21.90;47.10
16404;DHT22;8311;50.158;8.642;2024-01-27T10:40:54;22.00;47.70
16404;DHT22;8311;50.158;8.642;2024-01-27T10:43:50;22.00;47.00
16404;DHT22;8311;50.158;8.642;2024-01-27T10:46:47;22.00;47.00
16404;DHT22;8311;50.158;8.642;2024-01-27T10:49:41;22.00;46.70
16404;DHT22;8311;50.158;8.642;2024-01-27T10:52:38;22.00;46.80
16404;DHT22;8311;50.158;8.642;2024-01-27T10:55:33;22.10;46.60
16404;DHT22;8311;50.158;8.642;2024-01-27T10:58:28;22.10;46.50
16404;DHT22;8311;50.158;8.642;2024-01-27T11:01:22;22.20;46.30
16404;DHT22;8311;50.158;8.642;2024-01-27T11:04:17;22.20;46.30
16404;DHT22;8311;50.158;8.642;2024-01-27T11:07:12;22.20;46.10
16404;DHT22;8311;50.158;8.642;2024-01-27T11:10:05;22.30;45.90
16404;DHT22;8311;50.158;8.642;2024-01-27T11:12:59;22.30;45.90
16404;DHT22;8311;50.158;8.642;2024-01-27T11:15:52;22.40;45.70
16404;DHT22;8311;50.158;8.642;2024-01-27T11:18:48;22.40;45.60
16404;DHT22;8311;50.158;8.642;2024-01-27T11:21:43;22.40;45.50
16404;DHT22;8311;50.158;8.642;2024-01-27T11:24:36;22.50;45.50
16404;DHT22;8311;50.158;8.642;2024-01-27T11:27:30;22.50;45.50
16404;DHT22;8311;50.158;8.642;2024-01-27T11:30:25;22.50;45.40
16404;DHT22;8311;50.158;8.642;2024-01-27T11:33:20;22.60;45.30
16404;DHT22;8311;50.158;8.642;2024-01-27T11:36:21;22.60;45.30
16404;DHT22;8311;50.158;8.642;2024-01-27T11:39:28;22.70;45.20
16404;DHT22;8311;50.158;8.642;2024-01-27T11:42:21;22.70;45.20
16404;DHT22;8311;50.158;8.642;2024-01-27T11:45:14;22.70;45.10
16404;DHT22;8311;50.158;8.642;2024-01-27T11:48:07;22.70;45.10
16404;DHT22;8311;50.158;8.642;2024-01-27T11:51:03;22.70;45.20
16404;DHT22;8311;50.158;8.642;2024-01-27T11:53:57;22.80;45.10
16404;DHT22;8311;50.158;8.642;2024-01-27T11:56:52;22.80;45.10
16404;DHT22;8311;50.158;8.642;2024-01-27T11:59:45;22.80;45.20
16404;DHT22;8311;50.158;8.642;2024-01-27T12:02:38;22.70;45.00
16404;DHT22;8311;50.158;8.642;2024-01-27T12:05:31;22.80;45.00
16404;DHT22;8311;50.158;8.642;2024-01-27T12:12:12;22.80;44.80
16404;DHT22;8311;50.158;8.642;2024-01-27T12:15:07;22.90;44.80
16404;DHT22;8311;50.158;8.642;2024-01-27T12:18:00;22.90;44.70
16404;DHT22;8311;50.158;8.642;2024-01-27T12:20:55;22.90;44.70
16404;DHT22;8311;50.158;8.642;2024-01-27T12:23:51;22.90;44.80
16404;DHT22;8311;50.158;8.642;2024-01-27T12:26:45;22.90;44.90
16404;DHT22;8311;50.158;8.642;2024-01-27T12:33:24;22.90;44.90
16404;DHT22;8311;50.158;8.642;2024-01-27T12:36:19;22.90;45.10
16404;DHT22;8311;50.158;8.642;2024-01-27T12:39:12;22.90;44.80
16404;DHT22;8311;50.158;8.642;2024-01-27T12:42:05;22.90;44.90
16404;DHT22;8311;50.158;8.642;2024-01-27T12:44:58;22.90;44.80
16404;DHT22;8311;50.158;8.642;2024-01-27T12:47:51;22.90;44.70
16404;DHT22;8311;50.158;8.642;2024-01-27T12:50:46;22.90;44.70
16404;DHT22;8311;50.158;8.642;2024-01-27T12:53:41;22.90;44.80
16404;DHT22;8311;50.158;8.642;2024-01-27T12:56:36;22.90;44.60
16404;DHT22;8311;50.158;8.642;2024-01-27T12:59:29;22.90;44.70
16404;DHT22;8311;50.158;8.642;2024-01-27T13:06:09;22.90;44.70
16404;DHT22;8311;50.158;8.642;2024-01-27T13:09:02;22.80;44.90
16404;DHT22;8311;50.158;8.642;2024-01-27T13:11:55;22.80;44.80
16404;DHT22;8311;50.158;8.642;2024-01-27T13:14:49;22.80;44.90
16404;DHT22;8311;50.158;8.642;2024-01-27T13:17:42;22.80;45.10
16404;DHT22;8311;50.158;8.642;2024-01-27T13:20:35;22.70;45.20
16404;DHT22;8311;50.158;8.642;2024-01-27T13:23:31;22.70;45.40
16404;DHT22;8311;50.158;8.642;2024-01-27T13:26:24;22.60;45.50
16404;DHT22;8311;50.158;8.642;2024-01-27T13:29:19;22.60;45.20
16404;DHT22;8311;50.158;8.642;2024-01-27T13:32:13;22.60;45.40
16404;DHT22;8311;50.158;8.642;2024-01-27T13:35:07;22.60;45.60
16404;DHT22;8311;50.158;8.642;2024-01-27T13:38:00;22.50;45.50
16404;DHT22;8311;50.158;8.642;2024-01-27T13:40:55;22.50;45.60
16404;DHT22;8311;50.158;8.642;2024-01-27T13:43:47;22.50;45.70
16404;DHT22;8311;50.158;8.642;2024-01-27T13:46:40;22.50;45.60
16404;DHT22;8311;50.158;8.642;2024-01-27T13:53:18;22.40;45.70
16404;DHT22;8311;50.158;8.642;2024-01-27T13:56:14;22.30;45.80
16404;DHT22;8311;50.158;8.642;2024-01-27T13:59:07;22.30;45.60
16404;DHT22;8311;50.158;8.642;2024-01-27T14:02:00;22.30;45.60
16404;DHT22;8311;50.158;8.642;2024-01-27T14:04:55;22.20;45.70
16404;DHT22;8311;50.158;8.642;2024-01-27T14:07:48;22.20;45.80
16404;DHT22;8311;50.158;8.642;2024-01-27T14:10:42;22.10;45.90
16404;DHT22;8311;50.158;8.642;2024-01-27T14:13:37;22.10;46.00
16404;DHT22;8311;50.158;8.642;2024-01-27T14:16:31;22.10;46.20
16404;DHT22;8311;50.158;8.642;2024-01-27T14:19:24;22.00;46.40
16404;DHT22;8311;50.158;8.642;2024-01-27T14:22:18;22.00;46.50
16404;DHT22;8311;50.158;8.642;2024-01-27T14:25:11;21.90;46.50
16404;DHT22;8311;50.158;8.642;2024-01-27T14:28:05;21.90;46.50
16404;DHT22;8311;50.158;8.642;2024-01-27T14:31:00;21.90;47.20
16404;DHT22;8311;50.158;8.642;2024-01-27T14:33:53;21.80;46.60
16404;DHT22;8311;50.158;8.642;2024-01-27T14:36:46;21.80;46.70
16404;DHT22;8311;50.158;8.642;2024-01-27T14:39:39;21.80;47.00
16404;DHT22;8311;50.158;8.642;2024-01-27T14:42:33;21.70;47.00
16404;DHT22;8311;50.158;8.642;2024-01-27T14:45:27;21.70;47.10
16404;DHT22;8311;50.158;8.642;2024-01-27T14:48:23;21.70;47.30
16404;DHT22;8311;50.158;8.642;2024-01-27T14:51:16;21.60;47.40
16404;DHT22;8311;50.158;8.642;2024-01-27T14:54:09;21.60;47.40
16404;DHT22;8311;50.158;8.642;2024-01-27T14:57:03;21.60;47.50
16404;DHT22;8311;50.158;8.642;2024-01-27T14:59:56;21.50;47.40
16404;DHT22;8311;50.158;8.642;2024-01-27T15:02:49;21.50;47.50
16404;DHT22;8311;50.158;8.642;2024-01-27T15:09:28;21.50;47.80
16404;DHT22;8311;50.158;8.642;2024-01-27T15:12:21;21.40;47.80
16404;DHT22;8311;50.158;8.642;2024-01-27T15:15:16;21.40;47.80
16404;DHT22;8311;50.158;8.642;2024-01-27T15:18:09;21.40;47.70
16404;DHT22;8311;50.158;8.642;2024-01-27T15:24:49;21.40;47.80
16404;DHT22;8311;50.158;8.642;2024-01-27T15:27:41;21.40;48.00
16404;DHT22;8311;50.158;8.642;2024-01-27T15:30:35;21.30;48.00
16404;DHT22;8311;50.158;8.642;2024-01-27T15:33:28;21.30;47.90
16404;DHT22;8311;50.158;8.642;2024-01-27T15:36:21;21.30;48.00
16404;DHT22;8311;50.158;8.642;2024-01-27T15:39:15;21.30;48.00
16404;DHT22;8311;50.158;8.642;2024-01-27T15:42:10;21.30;47.90
16404;DHT22;8311;50.158;8.642;2024-01-27T15:45:03;21.30;48.10
16404;DHT22;8311;50.158;8.642;2024-01-27T15:47:57;21.30;48.00
16404;DHT22;8311;50.158;8.642;2024-01-27T15:50:51;21.30;48.00
16404;DHT22;8311;50.158;8.642;2024-01-27T15:53:46;21.20;47.80
16404;DHT22;8311;50.158;8.642;2024-01-27T15:56:40;21.20;48.00
16404;DHT22;8311;50.158;8.642;2024-01-27T15:59:35;21.20;47.90
16404;DHT22;8311;50.158;8.642;2024-01-27T16:02:28;21.20;47.80
16404;DHT22;8311;50.158;8.642;2024-01-27T16:05:21;21.10;47.90
16404;DHT22;8311;50.158;8.642;2024-01-27T16:08:15;21.10;47.90
16404;DHT22;8311;50.158;8.642;2024-01-27T16:11:09;21.10;47.80
16404;DHT22;8311;50.158;8.642;2024-01-27T16:14:01;21.10;48.00
16404;DHT22;8311;50.158;8.642;2024-01-27T16:16:56;21.10;47.70
16404;DHT22;8311;50.158;8.642;2024-01-27T16:19:49;21.10;48.00
16404;DHT22;8311;50.158;8.642;2024-01-27T16:26:26;21.00;47.70
16404;DHT22;8311;50.158;8.642;2024-01-27T16:29:19;21.00;47.90
16404;DHT22;8311;50.158;8.642;2024-01-27T16:32:14;21.00;47.90
16404;DHT22;8311;50.158;8.642;2024-01-27T16:35:09;21.00;48.00
16404;DHT22;8311;50.158;8.642;2024-01-27T16:38:03;21.00;48.20
16404;DHT22;8311;50.158;8.642;2024-01-27T16:40:56;21.00;48.00
16404;DHT22;8311;50.158;8.642;2024-01-27T16:43:50;20.90;48.00
16404;DHT22;8311;50.158;8.642;2024-01-27T16:46:44;21.00;48.00
16404;DHT22;8311;50.158;8.642;2024-01-27T16:49:39;20.90;47.80
16404;DHT22;8311;50.158;8.642;2024-01-27T16:52:32;20.90;48.20
16404;DHT22;8311;50.158;8.642;2024-01-27T16:55:26;20.90;48.10
16404;DHT22;8311;50.158;8.642;2024-01-27T16:58:20;20.90;48.00
16404;DHT22;8311;50.158;8.642;2024-01-27T17:01:13;20.90;48.10
16404;DHT22;8311;50.158;8.642;2024-01-27T17:04:07;20.90;48.20
16404;DHT22;8311;50.158;8.642;2024-01-27T17:07:07;20.90;48.10
16404;DHT22;8311;50.158;8.642;2024-01-27T17:10:01;20.80;49.60
16404;DHT22;8311;50.158;8.642;2024-01-27T17:16:42;20.70;46.70
16404;DHT22;8311;50.158;8.642;2024-01-27T17:19:35;20.70;45.40
16404;DHT22;8311;50.158;8.642;2024-01-27T17:22:30;20.70;44.80
16404;DHT22;8311;50.158;8.642;2024-01-27T17:25:22;20.70;45.10
16404;DHT22;8311;50.158;8.642;2024-01-27T17:28:15;20.70;45.10
16404;DHT22;8311;50.158;8.642;2024-01-27T17:31:08;20.70;44.70
16404;DHT22;8311;50.158;8.642;2024-01-27T17:34:01;20.70;44.90
16404;DHT22;8311;50.158;8.642;2024-01-27T17:36:54;20.70;45.10
16404;DHT22;8311;50.158;8.642;2024-01-27T17:39:49;20.70;45.20
16404;DHT22;8311;50.158;8.642;2024-01-27T17:42:42;20.60;45.30
16404;DHT22;8311;50.158;8.642;2024-01-27T17:45:35;20.70;45.40
16404;DHT22;8311;50.158;8.642;2024-01-27T17:48:28;20.60;45.50
16404;DHT22;8311;50.158;8.642;2024-01-27T17:51:22;20.60;45.40
16404;DHT22;8311;50.158;8.642;2024-01-27T17:54:16;20.60;45.60
16404;DHT22;8311;50.158;8.642;2024-01-27T17:57:10;20.60;45.50
16404;DHT22;8311;50.158;8.642;2024-01-27T18:00:04;20.60;45.70
16404;DHT22;8311;50.158;8.642;2024-01-27T18:02:59;20.60;45.80
16404;DHT22;8311;50.158;8.642;2024-01-27T18:05:53;20.60;45.80
16404;DHT22;8311;50.158;8.642;2024-01-27T18:08:47;20.60;46.20
16404;DHT22;8311;50.158;8.642;2024-01-27T18:11:39;20.60;46.20
16404;DHT22;8311;50.158;8.642;2024-01-27T18:14:34;20.60;48.20
16404;DHT22;8311;50.158;8.642;2024-01-27T18:17:27;20.60;48.60
16404;DHT22;8311;50.158;8.642;2024-01-27T18:20:19;20.50;48.30
16404;DHT22;8311;50.158;8.642;2024-01-27T18:23:12;20.50;47.70
16404;DHT22;8311;50.158;8.642;2024-01-27T18:29:52;20.50;46.60
16404;DHT22;8311;50.158;8.642;2024-01-27T18:32:45;20.40;45.60
16404;DHT22;8311;50.158;8.642;2024-01-27T18:35:40;20.40;46.00
16404;DHT22;8311;50.158;8.642;2024-01-27T18:38:34;20.40;45.70
16404;DHT22;8311;50.158;8.642;2024-01-27T18:41:28;20.40;46.20
16404;DHT22;8311;50.158;8.642;2024-01-27T18:44:21;20.40;45.40
16404;DHT22;8311;50.158;8.642;2024-01-27T18:47:16;20.40;45.00
16404;DHT22;8311;50.158;8.642;2024-01-27T18:50:10;20.40;44.70
16404;DHT22;8311;50.158;8.642;2024-01-27T18:53:04;20.40;44.30
16404;DHT22;8311;50.158;8.642;2024-01-27T18:55:57;20.30;43.90
16404;DHT22;8311;50.158;8.642;2024-01-27T18:58:51;20.30;43.70
16404;DHT22;8311;50.158;8.642;2024-01-27T19:01:46;20.30;43.50
16404;DHT22;8311;50.158;8.642;2024-01-27T19:04:41;20.30;43.20
16404;DHT22;8311;50.158;8.642;2024-01-27T19:07:35;20.30;42.90
16404;DHT22;8311;50.158;8.642;2024-01-27T19:10:28;20.30;42.60
16404;DHT22;8311;50.158;8.642;2024-01-27T19:13:21;20.30;42.40
16404;DHT22;8311;50.158;8.642;2024-01-27T19:16:16;20.30;42.20
16404;DHT22;8311;50.158;8.642;2024-01-27T19:19:09;20.20;42.00
16404;DHT22;8311;50.158;8.642;2024-01-27T19:22:04;20.20;41.80
16404;DHT22;8311;50.158;8.642;2024-01-27T19:28:43;20.20;40.70
16404;DHT22;8311;50.158;8.642;2024-01-27T19:31:35;20.20;40.80
16404;DHT22;8311;50.158;8.642;2024-01-27T19:34:30;20.30;41.80
16404;DHT22;8311;50.158;8.642;2024-01-27T19:37:25;20.30;42.50
16404;DHT22;8311;50.158;8.642;2024-01-27T19:40:18;20.40;43.20
16404;DHT22;8311;50.158;8.642;2024-01-27T19:46:56;20.50;44.60
16404;DHT22;8311;50.158;8.642;2024-01-27T19:49:50;20.60;45.40
16404;DHT22;8311;50.158;8.642;2024-01-27T19:52:45;20.70;46.80
16404;DHT22;8311;50.158;8.642;2024-01-27T19:55:37;20.70;47.60
16404;DHT22;8311;50.158;8.642;2024-01-27T19:58:31;20.80;48.50
16404;DHT22;8311;50.158;8.642;2024-01-27T20:01:24;20.80;49.00
16404;DHT22;8311;50.158;8.642;2024-01-27T20:04:17;20.90;49.50